Terminal Aerodrome Forecast
Issued by NWS Lake Charles, LA

Home | Current Version | Previous Version | Text Only | Print | Product List | Glossary On
Versions: 1 2 3 4 5 6 7 8 9 10 11 12 13 14 15 16 17 18 19 20 21 22 23 24
000
FTUS44 KLCH 212300
TAFLCH
TAF
KLCH 212320Z 2200/2224 09004KT P6SM OVC008
      TEMPO 2202/2206 4SM BR BKN004 OVC008
     FM220600 15006KT 4SM BR BKN004 OVC008
      TEMPO 2210/2214 1/4SM FG VV001
     FM221500 20015G23KT P6SM OVC015=

USA.gov is the U.S. government's official web portal to all federal, state and local government web resources and services.